sensor_id;sensor_type;location;lat;lon;timestamp;pressure;altitude;pressure_sealevel;temperature;humidity
9325;BME280;4701;51.566;6.776;2023-11-21T06:03:13;100983.59;;;8.08;100.00
9325;BME280;4701;51.566;6.776;2023-11-21T06:08:15;100988.97;;;8.20;100.00
9325;BME280;4701;51.566;6.776;2023-11-21T06:13:17;100999.19;;;8.29;100.00
9325;BME280;4701;51.566;6.776;2023-11-21T06:18:22;101007.31;;;8.41;100.00
9325;BME280;4701;51.566;6.776;2023-11-21T06:23:24;101020.22;;;8.51;100.00
9325;BME280;4701;51.566;6.776;2023-11-21T06:28:25;101015.19;;;8.59;100.00
9325;BME280;4701;51.566;6.776;2023-11-21T06:33:28;101019.41;;;8.67;100.00
9325;BME280;4701;51.566;6.776;2023-11-21T06:38:30;101023.03;;;8.72;100.00
9325;BME280;4701;51.566;6.776;2023-11-21T06:43:32;101041.06;;;8.79;100.00
9325;BME280;4701;51.566;6.776;2023-11-21T06:48:35;101049.88;;;8.86;100.00
9325;BME280;4701;51.566;6.776;2023-11-21T06:53:38;101057.28;;;8.90;100.00
9325;BME280;4701;51.566;6.776;2023-11-21T06:58:40;101062.78;;;8.95;100.00
9325;BME280;4701;51.566;6.776;2023-11-21T07:03:43;101066.69;;;8.99;100.00
9325;BME280;4701;51.566;6.776;2023-11-21T07:08:45;101072.44;;;9.03;100.00
9325;BME280;4701;51.566;6.776;2023-11-21T07:13:47;101079.03;;;9.07;100.00
9325;BME280;4701;51.566;6.776;2023-11-21T07:18:50;101079.63;;;9.09;100.00
9325;BME280;4701;51.566;6.776;2023-11-21T07:23:52;101086.19;;;9.13;100.00
9325;BME280;4701;51.566;6.776;2023-11-21T07:28:53;101092.22;;;9.15;100.00
9325;BME280;4701;51.566;6.776;2023-11-21T07:33:57;101091.13;;;9.16;100.00
9325;BME280;4701;51.566;6.776;2023-11-21T07:38:59;101092.50;;;9.19;100.00
9325;BME280;4701;51.566;6.776;2023-11-21T07:44:02;101102.31;;;9.20;100.00
9325;BME280;4701;51.566;6.776;2023-11-21T07:49:05;101120.06;;;9.22;100.00
9325;BME280;4701;51.566;6.776;2023-11-21T07:54:07;101129.88;;;9.23;100.00
9325;BME280;4701;51.566;6.776;2023-11-21T07:59:09;101128.78;;;9.24;100.00
9325;BME280;4701;51.566;6.776;2023-11-21T08:04:12;101148.41;;;9.26;100.00
9325;BME280;4701;51.566;6.776;2023-11-21T08:09:14;101159.84;;;9.28;100.00
9325;BME280;4701;51.566;6.776;2023-11-21T08:14:18;101160.44;;;9.30;100.00
9325;BME280;4701;51.566;6.776;2023-11-21T08:19:24;101172.16;;;9.31;100.00
9325;BME280;4701;51.566;6.776;2023-11-21T08:24:26;101180.88;;;9.33;100.00
9325;BME280;4701;51.566;6.776;2023-11-21T08:29:27;101188.81;;;9.34;100.00
9325;BME280;4701;51.566;6.776;2023-11-21T08:34:33;101192.34;;;9.35;100.00
9325;BME280;4701;51.566;6.776;2023-11-21T08:39:36;101191.25;;;9.36;100.00
9325;BME280;4701;51.566;6.776;2023-11-21T08:44:38;101199.19;;;9.37;100.00
9325;BME280;4701;51.566;6.776;2023-11-21T08:49:44;101209.81;;;9.39;100.00
9325;BME280;4701;51.566;6.776;2023-11-21T08:54:46;101215.00;;;9.40;100.00
9325;BME280;4701;51.566;6.776;2023-11-21T08:59:48;101216.66;;;9.41;100.00
9325;BME280;4701;51.566;6.776;2023-11-21T09:04:56;101228.13;;;9.43;100.00
9325;BME280;4701;51.566;6.776;2023-11-21T09:09:59;101224.31;;;9.44;100.00
9325;BME280;4701;51.566;6.776;2023-11-21T09:15:02;101235.53;;;9.48;100.00
9325;BME280;4701;51.566;6.776;2023-11-21T09:20:07;101257.06;;;9.49;100.00
9325;BME280;4701;51.566;6.776;2023-11-21T09:25:10;101259.53;;;9.51;100.00
9325;BME280;4701;51.566;6.776;2023-11-21T09:30:13;101255.75;;;9.52;100.00
9325;BME280;4701;51.566;6.776;2023-11-21T09:35:17;101262.03;;;9.53;100.00
9325;BME280;4701;51.566;6.776;2023-11-21T09:40:21;101274.53;;;9.54;100.00
9325;BME280;4701;51.566;6.776;2023-11-21T09:45:25;101283.28;;;9.56;100.00
9325;BME280;4701;51.566;6.776;2023-11-21T09:50:29;101282.22;;;9.57;100.00
9325;BME280;4701;51.566;6.776;2023-11-21T09:55:35;101291.22;;;9.57;100.00
9325;BME280;4701;51.566;6.776;2023-11-21T10:00:38;101281.97;;;9.58;100.00
9325;BME280;4701;51.566;6.776;2023-11-21T10:05:43;101293.44;;;9.60;100.00
9325;BME280;4701;51.566;6.776;2023-11-21T10:10:49;101294.28;;;9.61;100.00
9325;BME280;4701;51.566;6.776;2023-11-21T10:15:52;101295.91;;;9.62;100.00
9325;BME280;4701;51.566;6.776;2023-11-21T10:20:56;101294.00;;;9.62;100.00
9325;BME280;4701;51.566;6.776;2023-11-21T10:25:58;101292.69;;;9.65;100.00
9325;BME280;4701;51.566;6.776;2023-11-21T10:31:01;101305.00;;;9.67;100.00
9325;BME280;4701;51.566;6.776;2023-11-21T10:36:05;101310.19;;;9.69;100.00
9325;BME280;4701;51.566;6.776;2023-11-21T10:41:10;101321.91;;;9.69;100.00
9325;BME280;4701;51.566;6.776;2023-11-21T10:46:14;101325.19;;;9.71;100.00
9325;BME280;4701;51.566;6.776;2023-11-21T10:51:18;101326.59;;;9.74;100.00
9325;BME280;4701;51.566;6.776;2023-11-21T10:56:23;101335.34;;;9.76;100.00
9325;BME280;4701;51.566;6.776;2023-11-21T18:03:13;101933.63;;;7.85;100.00
9325;BME280;4701;51.566;6.776;2023-11-21T18:08:15;101939.47;;;7.88;100.00
9325;BME280;4701;51.566;6.776;2023-11-21T18:13:17;101949.66;;;7.93;100.00
9325;BME280;4701;51.566;6.776;2023-11-21T18:18:22;101955.50;;;7.96;100.00
9325;BME280;4701;51.566;6.776;2023-11-21T18:23:25;101971.13;;;8.01;100.00
9325;BME280;4701;51.566;6.776;2023-11-21T18:28:26;101975.91;;;8.06;100.00
9325;BME280;4701;51.566;6.776;2023-11-21T18:33:30;101977.31;;;8.08;100.00
9325;BME280;4701;51.566;6.776;2023-11-21T18:38:35;101984.81;;;8.13;99.49
9325;BME280;4701;51.566;6.776;2023-11-21T18:43:39;101983.56;;;8.15;99.38
9325;BME280;4701;51.566;6.776;2023-11-21T18:48:42;101992.31;;;8.17;98.45
9325;BME280;4701;51.566;6.776;2023-11-21T18:53:47;101993.75;;;8.20;97.91
9325;BME280;4701;51.566;6.776;2023-11-21T18:58:49;102005.22;;;8.22;97.26
9325;BME280;4701;51.566;6.776;2023-11-21T19:03:53;102015.88;;;8.23;97.09
9325;BME280;4701;51.566;6.776;2023-11-21T19:08:55;102008.56;;;8.24;96.38
9325;BME280;4701;51.566;6.776;2023-11-21T19:13:57;102012.94;;;8.25;96.66
9325;BME280;4701;51.566;6.776;2023-11-21T19:19:00;102022.75;;;8.26;96.41
9325;BME280;4701;51.566;6.776;2023-11-21T19:24:02;102023.56;;;8.26;95.80
9325;BME280;4701;51.566;6.776;2023-11-21T19:29:04;102036.09;;;8.27;95.59
9325;BME280;4701;51.566;6.776;2023-11-21T19:34:07;102025.25;;;8.27;95.23
9325;BME280;4701;51.566;6.776;2023-11-21T19:39:10;102026.06;;;8.28;94.64
9325;BME280;4701;51.566;6.776;2023-11-21T19:44:12;102044.03;;;8.29;94.65
9325;BME280;4701;51.566;6.776;2023-11-21T19:49:16;102060.13;;;8.30;94.57
9325;BME280;4701;51.566;6.776;2023-11-21T19:54:20;102072.03;;;8.29;95.20
